Time;durP1;ratioP1;P1;durP2;ratioP2;P2;SDS_P1;SDS_P2;PMS_P1;PMS_P2;Temp;Humidity;BMP_temperature;BMP_pressure;BME280_temperature;BME280_humidity;BME280_pressure;Samples;Min_cycle;Max_cycle;Signal;HPM_P1;HPM_P2
2021/12/10 00:01:08;;;;;;;52.27;24.37;;;;;;;-0.28;92.06;99685.53;1685619;84;26392;-83
2021/12/10 00:03:42;;;;;;;47.62;23.02;;;;;;;-0.27;92.04;99680.63;1636916;84;26416;-83
2021/12/10 00:06:17;;;;;;;44.80;21.42;;;;;;;-0.26;92.12;99683.62;1690137;83;27551;-83
2021/12/10 00:08:49;;;;;;;53.28;25.68;;;;;;;-0.28;92.08;99688.67;1686071;84;25976;-83
2021/12/10 00:11:20;;;;;;;55.08;22.65;;;;;;;-0.29;92.15;99687.84;1696600;84;25876;-83
2021/12/10 00:13:47;;;;;;;51.65;23.95;;;;;;;-0.29;92.17;99674.67;1687006;84;25826;-83
2021/12/10 00:16:17;;;;;;;50.28;22.58;;;;;;;-0.30;92.18;99674.31;1686974;83;26052;-83
2021/12/10 00:18:51;;;;;;;49.50;22.73;;;;;;;-0.28;92.19;99665.80;1672122;84;28277;-84
2021/12/10 00:21:11;;;;;;;56.65;23.47;;;;;;;-0.26;92.23;99661.25;1679045;84;26130;-83
2021/12/10 00:23:38;;;;;;;53.80;25.23;;;;;;;-0.26;92.30;99653.84;1672093;84;26027;-84
2021/12/10 00:26:05;;;;;;;55.80;24.30;;;;;;;-0.30;92.29;99641.43;1679180;84;25845;-83
2021/12/10 00:28:39;;;;;;;48.85;20.43;;;;;;;-0.30;92.37;99646.69;1669162;84;25315;-82
2021/12/10 00:34:30;;;;;;;46.73;22.67;;;;;;;-0.29;92.44;99642.27;1666544;84;26491;-83
2021/12/10 00:37:01;;;;;;;48.35;20.65;;;;;;;-0.30;92.56;99644.06;1671478;84;25816;-82
2021/12/10 00:39:39;;;;;;;48.60;21.33;;;;;;;-0.29;92.56;99637.84;1663081;84;25762;-82
2021/12/10 00:42:10;;;;;;;45.00;21.25;;;;;;;-0.27;92.53;99631.11;1668641;84;25688;-83
2021/12/10 00:44:39;;;;;;;42.10;19.45;;;;;;;-0.25;92.56;99633.11;1671489;84;28104;-83
2021/12/10 00:47:06;;;;;;;47.80;21.87;;;;;;;-0.24;92.59;99633.00;1686838;84;26089;-82
2021/12/10 00:49:33;;;;;;;42.95;19.90;;;;;;;-0.22;92.57;99629.73;1679411;84;25907;-83
2021/12/10 00:52:02;;;;;;;42.45;20.92;;;;;;;-0.21;92.53;99624.80;1679759;84;25852;-83
2021/12/10 00:54:28;;;;;;;48.23;21.25;;;;;;;-0.19;92.56;99624.17;1677489;84;26189;-83
2021/12/10 00:56:57;;;;;;;52.48;22.82;;;;;;;-0.18;92.61;99635.53;1670830;84;27461;-83
2021/12/10 00:59:23;;;;;;;50.38;23.40;;;;;;;-0.18;92.59;99625.84;1664373;84;25868;-83
2021/12/10 01:01:51;;;;;;;48.95;21.95;;;;;;;-0.18;92.61;99627.16;1674505;84;26055;-83
2021/12/10 01:04:26;;;;;;;50.85;23.18;;;;;;;-0.15;92.60;99631.31;1663384;84;26577;-83
2021/12/10 01:06:55;;;;;;;44.23;21.68;;;;;;;-0.13;92.75;99629.37;1678264;84;25320;-83
2021/12/10 01:09:27;;;;;;;37.20;20.05;;;;;;;-0.10;92.66;99622.48;1664536;84;27478;-83
2021/12/10 01:12:02;;;;;;;43.70;20.17;;;;;;;-0.12;92.69;99612.11;1675530;84;26056;-83
2021/12/10 01:14:41;;;;;;;49.50;23.92;;;;;;;-0.13;92.56;99606.48;1656172;84;25356;-83
2021/12/10 01:25:51;;;;;;;49.33;20.23;;;;;;;-0.07;92.78;99600.67;1669476;84;26568;-82
2021/12/10 01:28:06;;;;;;;47.43;21.57;;;;;;;-0.04;92.90;99596.90;1672683;84;25798;-83
2021/12/10 01:30:37;;;;;;;47.43;19.50;;;;;;;-0.02;92.83;99583.11;1674412;84;25766;-82
2021/12/10 01:33:12;;;;;;;53.40;23.67;;;;;;;-0.03;92.77;99581.46;1667840;84;25825;-83
2021/12/10 01:35:44;;;;;;;48.60;20.68;;;;;;;-0.03;92.86;99569.62;1672774;85;27558;-82
2021/12/10 01:38:12;;;;;;;45.10;19.48;;;;;;;-0.04;92.85;99566.15;1663755;85;25344;-82
2021/12/10 01:40:43;;;;;;;40.28;18.27;;;;;;;-0.02;92.90;99557.62;1667164;85;25550;-82
2021/12/10 01:43:21;;;;;;;48.05;20.60;;;;;;;-0.02;92.99;99566.83;1667518;85;25873;-83
2021/12/10 01:45:47;;;;;;;42.33;20.65;;;;;;;-0.01;92.99;99561.92;1664068;85;25915;-82
2021/12/10 01:48:22;;;;;;;43.40;19.25;;;;;;;-0.01;92.99;99552.71;1681501;84;27569;-83
2021/12/10 01:50:49;;;;;;;43.20;19.15;;;;;;;0.02;93.10;99554.71;1668032;85;25310;-83
2021/12/10 01:53:20;;;;;;;45.00;18.27;;;;;;;0.02;93.02;99548.12;1672977;85;26505;-84
2021/12/10 01:55:50;;;;;;;50.55;22.65;;;;;;;0.02;93.14;99546.81;1674929;85;25871;-82
2021/12/10 01:58:20;;;;;;;46.70;22.02;;;;;;;0.03;93.18;99548.45;1672251;84;25835;-84
2021/12/10 02:00:51;;;;;;;48.98;21.82;;;;;;;0.03;93.19;99553.72;1672698;83;28260;-82
2021/12/10 02:03:18;;;;;;;39.27;18.07;;;;;;;0.06;93.22;99562.17;1667588;84;26107;-83
2021/12/10 02:05:44;;;;;;;50.67;22.00;;;;;;;0.08;93.16;99557.59;1666923;84;26316;-83
2021/12/10 02:08:11;;;;;;;41.08;18.25;;;;;;;0.10;93.17;99555.64;1672296;84;25788;-83
2021/12/10 02:10:37;;;;;;;46.75;20.25;;;;;;;0.11;93.07;99557.80;1662985;84;25823;-82
2021/12/10 02:13:04;;;;;;;48.00;21.75;;;;;;;0.14;93.12;99549.10;1670194;84;27628;-82
2021/12/10 02:15:31;;;;;;;47.33;20.10;;;;;;;0.17;93.12;99546.16;1668213;84;25839;-83
2021/12/10 02:18:00;;;;;;;47.93;21.05;;;;;;;0.20;93.10;99543.73;1670546;84;26708;-82
2021/12/10 02:20:32;;;;;;;43.50;18.90;;;;;;;0.23;93.01;99541.65;1667467;84;25837;-83
2021/12/10 02:23:02;;;;;;;47.27;17.70;;;;;;;0.26;92.97;99540.02;1661486;84;25833;-82
2021/12/10 02:25:32;;;;;;;47.50;18.85;;;;;;;0.26;92.91;99534.75;1664894;84;27438;-83
2021/12/10 02:27:59;;;;;;;44.93;19.32;;;;;;;0.27;92.93;99537.74;1664559;84;33403;-83
2021/12/10 02:30:28;;;;;;;39.23;17.52;;;;;;;0.29;92.83;99535.79;1671562;84;25893;-83
2021/12/10 02:32:55;;;;;;;46.58;19.50;;;;;;;0.29;92.76;99532.31;1675428;84;26647;-83
2021/12/10 02:35:23;;;;;;;42.55;19.82;;;;;;;0.30;92.84;99530.04;1665898;84;25791;-83
2021/12/10 02:37:49;;;;;;;44.83;17.95;;;;;;;0.29;92.76;99525.25;1663844;84;28407;-83
2021/12/10 02:40:21;;;;;;;39.53;18.45;;;;;;;0.28;92.76;99527.53;1663743;84;25797;-82
2021/12/10 02:42:50;;;;;;;50.48;20.60;;;;;;;0.30;92.84;99520.83;1670363;84;25710;-83
2021/12/10 02:45:20;;;;;;;37.28;18.62;;;;;;;0.30;92.89;99509.77;1679583;84;25993;-82
2021/12/10 02:47:48;;;;;;;51.68;20.95;;;;;;;0.30;92.87;99505.83;1669445;84;25333;-81
2021/12/10 02:50:18;;;;;;;48.45;20.45;;;;;;;0.30;92.88;99500.56;1667344;84;27556;-83
2021/12/10 02:52:45;;;;;;;44.05;21.37;;;;;;;0.30;92.98;99498.44;1671656;84;26434;-83
2021/12/10 02:55:15;;;;;;;42.60;21.25;;;;;;;0.32;92.95;99488.06;1667391;84;25941;-83
2021/12/10 02:57:42;;;;;;;45.67;21.87;;;;;;;0.33;93.07;99491.05;1671271;84;25909;-83
2021/12/10 03:00:13;;;;;;;53.33;22.90;;;;;;;0.35;93.04;99498.31;1662605;84;25897;-83
2021/12/10 03:02:40;;;;;;;46.83;20.55;;;;;;;0.34;93.08;99498.48;1672097;84;27552;-83
2021/12/10 03:05:10;;;;;;;45.67;21.40;;;;;;;0.36;93.15;99509.20;1673118;84;26035;-83
2021/12/10 03:07:39;;;;;;;50.60;20.27;;;;;;;0.35;93.13;99508.02;1659695;86;25817;-82
2021/12/10 03:10:11;;;;;;;57.10;22.48;;;;;;;0.35;93.20;99510.66;1664094;84;25901;-83
2021/12/10 03:12:38;;;;;;;50.92;22.35;;;;;;;0.35;93.28;99505.38;1671067;84;25990;-82
2021/12/10 03:15:07;;;;;;;51.77;23.25;;;;;;;0.37;93.33;99506.06;1660709;85;27454;-83
2021/12/10 03:17:34;;;;;;;57.70;22.25;;;;;;;0.39;93.38;99501.47;1660111;85;25803;-82
2021/12/10 03:20:05;;;;;;;56.05;22.05;;;;;;;0.38;93.35;99503.30;1664167;84;25338;-83
2021/12/10 03:22:31;;;;;;;;;;;;;;;0.38;93.38;99499.83;1666202;84;25786;-82
2021/12/10 03:24:58;;;;;;;53.28;22.60;;;;;;;0.39;93.43;99491.77;1678479;84;26819;-82
2021/12/10 03:27:25;;;;;;;53.35;21.90;;;;;;;0.38;93.61;99490.61;1659814;86;27494;-84
2021/12/10 03:29:52;;;;;;;55.23;23.95;;;;;;;0.39;93.56;99484.35;1665799;84;26657;-82
2021/12/10 03:32:24;;;;;;;60.90;23.45;;;;;;;0.39;93.62;99483.88;1668036;84;25883;-82
2021/12/10 03:34:52;;;;;;;52.20;21.73;;;;;;;0.42;93.62;99477.48;1669576;84;25772;-83
2021/12/10 03:37:19;;;;;;;52.80;21.60;;;;;;;0.41;93.57;99470.06;1672341;84;25782;-83
2021/12/10 03:39:49;;;;;;;54.30;21.55;;;;;;;0.42;93.60;99459.04;1672185;84;27458;-83
2021/12/10 03:42:16;;;;;;;64.95;25.35;;;;;;;0.39;93.57;99460.16;1668598;84;25909;-82
2021/12/10 03:44:42;;;;;;;52.05;24.72;;;;;;;0.41;93.73;99458.69;1667093;84;25775;-83
2021/12/10 03:47:10;;;;;;;52.15;24.82;;;;;;;0.41;93.73;99457.38;1667921;84;26063;-83
2021/12/10 03:49:38;;;;;;;60.58;25.02;;;;;;;0.44;93.81;99449.18;1663426;84;25813;-82
2021/12/10 03:52:07;;;;;;;56.08;23.50;;;;;;;0.45;93.80;99448.22;1664697;84;27536;-83
2021/12/10 03:54:36;;;;;;;61.20;23.32;;;;;;;0.44;93.75;99441.28;1669427;84;26693;-84
2021/12/10 03:57:05;;;;;;;58.60;24.85;;;;;;;0.46;93.79;99444.59;1660485;84;25884;-82
2021/12/10 03:59:35;;;;;;;54.80;24.52;;;;;;;0.48;93.81;99440.83;1674203;84;25784;-83
2021/12/10 04:02:02;;;;;;;55.77;24.17;;;;;;;0.48;93.70;99444.78;1671598;84;26090;-83
2021/12/10 04:04:34;;;;;;;51.88;22.95;;;;;;;0.50;93.80;99444.14;1670214;84;28256;-82
2021/12/10 04:07:05;;;;;;;41.02;19.80;;;;;;;0.52;93.71;99439.55;1659599;85;26020;-82
2021/12/10 04:09:31;;;;;;;49.70;21.68;;;;;;;0.51;93.62;99435.75;1643935;86;25883;-83
2021/12/10 04:12:00;;;;;;;46.88;21.95;;;;;;;0.51;93.70;99434.44;1667785;84;26513;-82
2021/12/10 04:14:27;;;;;;;47.78;20.48;;;;;;;0.51;93.67;99430.48;1674687;84;25795;-82
2021/12/10 04:16:56;;;;;;;46.80;19.90;;;;;;;0.51;93.69;99426.02;1662483;84;27448;-85
2021/12/10 04:19:26;;;;;;;42.60;20.43;;;;;;;0.51;93.70;99431.80;1666754;84;25803;-83
2021/12/10 04:21:56;;;;;;;41.75;19.90;;;;;;;0.52;93.78;99432.13;1660716;84;25781;-83
2021/12/10 04:24:24;;;;;;;35.28;17.60;;;;;;;0.52;93.91;99434.27;1678019;84;26580;-83
2021/12/10 04:26:53;;;;;;;33.67;17.02;;;;;;;0.49;93.75;99424.55;1666555;84;26077;-83
2021/12/10 04:29:20;;;;;;;34.78;17.80;;;;;;;0.50;93.92;99430.13;1669134;84;28312;-83
2021/12/10 04:31:50;;;;;;;51.60;23.18;;;;;;;0.47;93.85;99428.63;1674599;84;25298;-83
2021/12/10 04:34:17;;;;;;;44.63;22.13;;;;;;;0.49;93.98;99420.59;1673873;84;25690;-82
2021/12/10 04:36:43;;;;;;;54.70;25.37;;;;;;;0.49;94.05;99424.55;1667377;84;25773;-83
2021/12/10 04:39:11;;;;;;;62.43;27.00;;;;;;;0.50;94.28;99423.55;1675095;84;25994;-82
2021/12/10 04:41:38;;;;;;;56.55;27.85;;;;;;;0.48;94.07;99425.02;1658800;85;27516;-83
2021/12/10 04:44:05;;;;;;;43.23;21.57;;;;;;;0.49;94.19;99422.70;1677226;84;26036;-82
2021/12/10 04:46:32;;;;;;;39.53;20.27;;;;;;;0.52;94.30;99422.42;1671419;84;25824;-82
2021/12/10 04:49:06;;;;;;;37.53;20.70;;;;;;;0.53;94.33;99424.09;1663624;84;25855;-84
2021/12/10 04:51:37;;;;;;;36.38;18.70;;;;;;;0.54;94.29;99423.09;1671823;84;25396;-83
2021/12/10 04:54:07;;;;;;;35.38;17.60;;;;;;;0.56;94.33;99421.61;1660192;84;27543;-83
2021/12/10 04:56:34;;;;;;;30.90;17.15;;;;;;;0.57;94.32;99420.17;1667123;84;33252;-83
2021/12/10 04:59:04;;;;;;;37.83;19.52;;;;;;;0.60;94.33;99421.64;1662970;84;26324;-82
2021/12/10 05:01:30;;;;;;;35.55;18.30;;;;;;;0.59;94.31;99414.73;1667294;84;25919;-82
2021/12/10 05:03:57;;;;;;;39.08;19.10;;;;;;;0.59;94.28;99416.89;1665238;84;25816;-82
2021/12/10 05:06:24;;;;;;;39.50;20.43;;;;;;;0.60;94.33;99413.74;1643411;84;27426;-83
2021/12/10 05:08:50;;;;;;;38.98;20.80;;;;;;;0.62;94.49;99408.66;1667668;84;26087;-83
2021/12/10 05:11:17;;;;;;;43.25;23.35;;;;;;;0.65;94.42;99412.33;1669402;84;25587;-83
2021/12/10 05:13:47;;;;;;;52.62;29.77;;;;;;;0.68;94.37;99410.68;1671488;84;26020;-84
2021/12/10 05:16:15;;;;;;;81.08;46.75;;;;;;;0.66;94.35;99409.20;1667437;84;25579;-83
2021/12/10 05:18:45;;;;;;;58.85;29.52;;;;;;;0.67;94.40;99414.80;1671035;84;27485;-83
2021/12/10 05:21:14;;;;;;;50.33;27.98;;;;;;;0.69;94.45;99418.11;1664548;84;25682;-83
2021/12/10 05:23:41;;;;;;;46.20;26.55;;;;;;;0.72;94.49;99413.38;1664658;84;25775;-82
2021/12/10 05:26:08;;;;;;;38.08;20.45;;;;;;;0.73;94.46;99421.60;1667709;84;25817;-83
2021/12/10 05:28:35;;;;;;;38.98;19.98;;;;;;;0.75;94.52;99420.95;1686360;84;25821;-82
2021/12/10 05:31:02;;;;;;;49.20;26.50;;;;;;;0.76;94.55;99410.77;1670565;84;27442;-83
2021/12/10 05:33:29;;;;;;;38.30;19.37;;;;;;;0.79;94.58;99406.48;1671014;84;25789;-82
2021/12/10 05:35:57;;;;;;;37.48;22.00;;;;;;;0.81;94.47;99396.30;1663926;84;26754;-83
2021/12/10 05:38:24;;;;;;;38.92;18.98;;;;;;;0.81;94.45;99394.50;1680553;84;26088;-83
2021/12/10 05:40:53;;;;;;;42.13;18.70;;;;;;;0.82;94.41;99390.03;1671947;84;25373;-82
2021/12/10 05:43:21;;;;;;;41.55;21.07;;;;;;;0.85;94.52;99387.93;1668089;84;28382;-83
2021/12/10 05:45:49;;;;;;;37.25;18.12;;;;;;;0.85;94.50;99397.16;1673774;84;25981;-83
2021/12/10 05:48:16;;;;;;;44.85;21.80;;;;;;;0.88;94.56;99402.61;1675400;84;25840;-83
2021/12/10 05:50:43;;;;;;;37.67;18.95;;;;;;;0.88;94.55;99389.44;1641208;86;25985;-83
2021/12/10 05:53:09;;;;;;;43.58;23.20;;;;;;;0.89;94.55;99393.23;1660619;85;25815;-82
2021/12/10 05:55:39;;;;;;;65.03;36.73;;;;;;;0.90;94.54;99380.88;1670991;84;28292;-82
2021/12/10 05:58:06;;;;;;;63.47;29.30;;;;;;;0.94;94.59;99405.95;1670775;84;26015;-82
2021/12/10 06:00:44;;;;;;;35.98;19.07;;;;;;;0.93;94.54;99400.32;1666338;84;25549;-83
2021/12/10 06:03:11;;;;;;;33.78;17.82;;;;;;;0.95;94.58;99402.31;1661172;84;25846;-83
2021/12/10 06:05:39;;;;;;;30.23;16.37;;;;;;;0.94;94.58;99407.27;1663993;84;25884;-83
2021/12/10 06:08:07;;;;;;;32.15;16.20;;;;;;;0.94;94.63;99415.17;1672141;84;28192;-82
2021/12/10 06:10:35;;;;;;;33.78;16.45;;;;;;;0.94;94.64;99424.41;1672021;84;25945;-83
2021/12/10 06:13:02;;;;;;;35.98;16.77;;;;;;;0.94;94.75;99413.34;1697980;84;25870;-83
2021/12/10 06:15:29;;;;;;;32.03;15.98;;;;;;;0.97;94.79;99406.45;1663964;86;25995;-83
2021/12/10 06:17:57;;;;;;;30.85;17.77;;;;;;;0.97;94.75;99407.77;1653313;85;25894;-83
2021/12/10 06:20:30;;;;;;;32.55;17.37;;;;;;;1.00;94.89;99410.11;1645412;86;28315;-82
2021/12/10 06:22:59;;;;;;;38.05;19.20;;;;;;;1.00;94.90;99409.28;1648613;86;25831;-82
2021/12/10 06:25:31;;;;;;;38.28;18.27;;;;;;;1.01;94.95;99401.20;1655426;85;25857;-82
2021/12/10 06:27:58;;;;;;;32.63;18.23;;;;;;;1.03;94.96;99395.77;1667248;84;25926;-83
2021/12/10 06:30:31;;;;;;;37.88;19.85;;;;;;;1.03;94.86;99398.41;1683161;84;26490;-83
2021/12/10 06:33:02;;;;;;;35.48;19.15;;;;;;;1.03;94.96;99404.99;1672375;84;27462;-83
2021/12/10 06:35:31;;;;;;;32.93;18.30;;;;;;;1.05;95.00;99405.18;1666279;84;25920;-82
2021/12/10 06:37:59;;;;;;;37.83;21.15;;;;;;;1.07;95.07;99397.14;1665176;84;26562;-83
2021/12/10 06:40:28;;;;;;;40.65;20.30;;;;;;;1.10;95.19;99395.48;1672111;84;26551;-83
2021/12/10 06:42:55;;;;;;;40.38;21.17;;;;;;;1.13;95.17;99401.30;1680440;84;25876;-83
2021/12/10 06:45:28;;;;;;;40.63;22.65;;;;;;;1.14;95.13;99402.94;1674363;84;27551;-83
2021/12/10 06:47:58;;;;;;;40.50;20.68;;;;;;;1.13;95.10;99401.30;1669965;84;26250;-83
2021/12/10 06:50:29;;;;;;;45.12;24.23;;;;;;;1.16;95.22;99396.17;1671684;84;25822;-83
2021/12/10 06:52:57;;;;;;;32.73;18.32;;;;;;;1.18;95.22;99396.84;1670449;84;25839;-83
2021/12/10 06:55:25;;;;;;;49.90;21.45;;;;;;;1.20;95.28;99397.03;1671753;84;25927;-84
2021/12/10 06:57:51;;;;;;;42.55;21.33;;;;;;;1.20;95.26;99402.79;1669446;84;28296;-85
2021/12/10 07:00:32;;;;;;;41.83;22.07;;;;;;;1.21;95.27;99406.61;1666740;84;25503;-82
2021/12/10 07:02:59;;;;;;;38.23;21.00;;;;;;;1.23;95.25;99401.17;1661723;84;25800;-83
2021/12/10 07:05:26;;;;;;;49.53;22.73;;;;;;;1.24;95.29;99393.61;1674834;84;25848;-82
2021/12/10 07:07:52;;;;;;;41.90;21.42;;;;;;;1.26;95.38;99396.40;1669986;84;26453;-82
2021/12/10 07:10:19;;;;;;;36.40;19.52;;;;;;;1.29;95.35;99399.22;1671475;84;28070;-83
2021/12/10 07:12:46;;;;;;;44.58;21.97;;;;;;;1.30;95.33;99399.57;1669076;84;25900;-82
2021/12/10 07:15:15;;;;;;;40.00;19.82;;;;;;;1.31;95.29;99393.30;1668781;84;25853;-82
2021/12/10 07:17:47;;;;;;;38.88;21.05;;;;;;;1.33;95.31;99393.95;1665034;84;26536;-84
2021/12/10 07:20:15;;;;;;;45.65;22.13;;;;;;;1.37;95.44;99386.89;1665007;84;25888;-82
2021/12/10 07:22:42;;;;;;;46.13;21.45;;;;;;;1.39;95.33;99391.52;1672595;84;27514;-83
2021/12/10 07:25:10;;;;;;;44.63;22.30;;;;;;;1.38;95.23;99390.38;1673026;84;26036;-83
2021/12/10 07:27:38;;;;;;;41.18;19.40;;;;;;;1.38;95.29;99397.80;1666298;84;25828;-82
2021/12/10 07:30:07;;;;;;;35.78;20.08;;;;;;;1.40;95.32;99409.50;1659676;85;25963;-83
2021/12/10 07:32:34;;;;;;;40.30;21.27;;;;;;;1.40;95.26;99403.74;1662286;84;25894;-82
2021/12/10 07:35:02;;;;;;;37.78;21.17;;;;;;;1.41;95.19;99395.34;1676447;84;27473;-82
2021/12/10 07:37:28;;;;;;;41.50;20.57;;;;;;;1.44;95.31;99402.44;1667456;84;26514;-83
2021/12/10 07:39:55;;;;;;;40.55;22.58;;;;;;;1.46;95.17;99398.31;1665925;84;25803;-82
2021/12/10 07:42:21;;;;;;;47.98;23.18;;;;;;;1.46;95.18;99408.87;1680829;84;26574;-82
2021/12/10 07:44:50;;;;;;;50.67;28.35;;;;;;;1.45;95.15;99414.63;1669837;84;25636;-81
2021/12/10 07:47:16;;;;;;;54.67;29.67;;;;;;;1.49;95.20;99421.77;1667075;84;27566;-84
2021/12/10 07:49:44;;;;;;;43.05;25.12;;;;;;;1.52;95.19;99427.54;1671103;84;25350;-82
2021/12/10 07:52:21;;;;;;;49.45;26.75;;;;;;;1.55;95.19;99431.20;1667568;84;25370;-83
2021/12/10 07:54:48;;;;;;;45.23;25.72;;;;;;;1.61;95.16;99429.72;1669919;84;25969;-82
2021/12/10 07:57:17;;;;;;;;;;;;;;;1.63;95.07;99411.08;1671417;84;25857;-83
2021/12/10 07:59:45;;;;;;;43.23;23.22;;;;;;;1.66;94.97;99414.73;1688077;83;27512;-83
2021/12/10 08:02:12;;;;;;;56.23;30.95;;;;;;;1.66;95.04;99407.65;1671113;84;25880;-82
2021/12/10 08:04:38;;;;;;;59.33;32.28;;;;;;;1.68;94.90;99400.88;1664044;84;26601;-82
2021/12/10 08:07:05;;;;;;;60.17;30.90;;;;;;;1.72;94.89;99398.25;1667468;84;25951;-82
2021/12/10 08:09:31;;;;;;;49.50;27.60;;;;;;;1.73;94.81;99402.08;1669238;84;25900;-82
2021/12/10 08:11:57;;;;;;;55.00;28.60;;;;;;;1.74;94.78;99403.71;1668604;84;27487;-82
2021/12/10 08:14:24;;;;;;;51.23;26.27;;;;;;;1.76;94.67;99403.55;1672177;84;25919;-83
2021/12/10 08:16:50;;;;;;;51.45;27.67;;;;;;;1.78;94.70;99398.93;1667841;84;25824;-83
2021/12/10 08:19:18;;;;;;;54.00;26.45;;;;;;;1.80;94.69;99412.80;1651763;84;25814;-83
2021/12/10 08:21:44;;;;;;;53.08;26.97;;;;;;;1.83;94.70;99408.52;1673364;84;25894;-83
2021/12/10 08:24:11;;;;;;;53.30;26.50;;;;;;;1.82;94.51;99410.33;1671363;84;28278;-83
2021/12/10 08:26:39;;;;;;;48.90;25.70;;;;;;;1.84;94.53;99400.95;1663355;84;25927;-82
2021/12/10 08:29:09;;;;;;;45.65;23.92;;;;;;;1.86;94.54;99409.54;1667472;84;25778;-82
2021/12/10 08:31:35;;;;;;;48.78;27.30;;;;;;;1.87;94.37;99413.81;1668753;84;26534;-84
2021/12/10 08:34:03;;;;;;;48.23;24.87;;;;;;;1.87;94.40;99411.17;1676219;84;25802;-83
2021/12/10 08:36:33;;;;;;;52.15;27.55;;;;;;;1.88;94.46;99417.61;1668343;84;27522;-83
2021/12/10 08:38:58;;;;;;;57.60;31.90;;;;;;;1.93;94.43;99406.57;1667007;84;25739;-83
2021/12/10 08:41:29;;;;;;;127.15;57.98;;;;;;;1.94;94.29;99403.79;1668677;84;25896;-83
2021/12/10 08:43:56;;;;;;;147.62;67.50;;;;;;;1.96;94.32;99405.77;1668472;84;25847;-84
2021/12/10 08:46:25;;;;;;;108.97;52.40;;;;;;;1.99;94.45;99402.80;1667449;84;25915;-82
2021/12/10 08:48:53;;;;;;;82.72;40.67;;;;;;;2.01;94.15;99407.41;1672788;84;27498;-83
2021/12/10 08:51:25;;;;;;;186.70;83.03;;;;;;;2.00;94.12;99413.70;1663894;84;25825;-82
2021/12/10 08:53:52;;;;;;;269.18;102.62;;;;;;;2.02;94.11;99413.53;1664115;84;25902;-84
2021/12/10 08:56:19;;;;;;;241.42;95.92;;;;;;;2.03;94.08;99410.72;1663357;84;25787;-82
2021/12/10 08:58:46;;;;;;;353.27;145.82;;;;;;;2.02;94.00;99413.05;1663901;84;25931;-83
2021/12/10 09:01:17;;;;;;;198.53;92.92;;;;;;;2.04;93.96;99415.03;1667033;84;27558;-83
2021/12/10 09:03:49;;;;;;;129.70;61.58;;;;;;;2.04;93.91;99424.27;1670869;84;26032;-83
2021/12/10 09:06:18;;;;;;;120.22;61.02;;;;;;;2.05;94.02;99419.30;1674433;84;25360;-82
2021/12/10 09:08:45;;;;;;;152.70;80.92;;;;;;;2.06;93.92;99420.14;1665373;84;26603;-82
2021/12/10 09:11:12;;;;;;;100.53;59.70;;;;;;;2.05;93.88;99415.34;1668341;84;25369;-83
2021/12/10 09:13:40;;;;;;;69.22;44.50;;;;;;;2.06;93.94;99419.66;1672275;83;28851;-82
2021/12/10 09:16:17;;;;;;;37.00;22.40;;;;;;;2.08;93.91;99423.45;1671488;84;25837;-82
2021/12/10 09:18:40;;;;;;;40.15;20.82;;;;;;;2.10;93.91;99416.19;1668417;84;25997;-82
2021/12/10 09:21:08;;;;;;;34.27;19.02;;;;;;;2.11;93.84;99418.69;1671179;84;25894;-83
2021/12/10 09:23:35;;;;;;;32.20;18.62;;;;;;;2.10;93.86;99418.83;1674124;84;25936;-82
2021/12/10 09:26:06;;;;;;;30.92;19.17;;;;;;;2.10;93.81;99416.19;1664007;84;27457;-82
2021/12/10 09:28:35;;;;;;;38.58;20.48;;;;;;;2.13;93.90;99424.63;1666368;84;25989;-82
2021/12/10 09:31:02;;;;;;;37.70;20.35;;;;;;;2.16;93.80;99427.45;1671930;85;25799;-82
2021/12/10 09:33:29;;;;;;;34.23;18.15;;;;;;;2.19;93.73;99446.92;1667571;84;25849;-82
2021/12/10 09:35:56;;;;;;;33.98;18.25;;;;;;;2.18;93.63;99437.36;1663534;84;25772;-82
2021/12/10 09:38:27;;;;;;;39.98;20.40;;;;;;;2.18;93.59;99432.88;1663530;85;27611;-81
2021/12/10 09:41:00;;;;;;;45.98;21.35;;;;;;;2.20;93.67;99432.22;1673166;85;26480;-81
2021/12/10 09:43:27;;;;;;;38.83;18.82;;;;;;;2.24;93.60;99432.75;1674762;84;25281;-82
2021/12/10 09:45:55;;;;;;;34.05;18.48;;;;;;;2.24;93.47;99416.89;1663631;85;25878;-82
2021/12/10 09:48:23;;;;;;;30.40;17.92;;;;;;;2.26;93.58;99411.78;1671257;84;25945;-82
2021/12/10 09:50:55;;;;;;;31.23;17.40;;;;;;;2.29;93.42;99419.37;1673319;85;27453;-84
2021/12/10 09:53:26;;;;;;;33.00;17.07;;;;;;;2.29;93.31;99420.69;1674337;84;25856;-83
2021/12/10 09:55:54;;;;;;;32.08;18.12;;;;;;;2.32;93.33;99420.38;1666521;85;25895;-84
2021/12/10 09:58:21;;;;;;;29.98;18.17;;;;;;;2.36;93.31;99424.83;1676076;84;25969;-83
2021/12/10 10:01:01;;;;;;;33.30;19.42;;;;;;;2.39;93.29;99424.52;1672290;85;25789;-83
2021/12/10 10:03:33;;;;;;;32.00;17.45;;;;;;;2.41;93.14;99426.98;1668349;84;33878;-83
2021/12/10 10:06:00;;;;;;;28.90;16.97;;;;;;;2.42;93.04;99435.27;1669427;84;26184;-83
2021/12/10 10:08:28;;;;;;;29.57;17.85;;;;;;;2.43;93.06;99431.61;1668409;84;26677;-83
2021/12/10 10:11:04;;;;;;;33.35;18.50;;;;;;;2.46;93.09;99426.02;1671100;85;26134;-83
2021/12/10 10:13:35;;;;;;;26.23;15.83;;;;;;;2.53;93.12;99428.31;1664337;84;25895;-83
2021/12/10 10:16:02;;;;;;;27.77;17.02;;;;;;;2.55;92.82;99418.40;1663581;85;27495;-83
2021/12/10 10:18:33;;;;;;;33.38;18.92;;;;;;;2.56;92.75;99416.94;1659478;85;25378;-83
2021/12/10 10:21:05;;;;;;;32.35;18.65;;;;;;;2.58;92.61;99414.12;1670206;85;26618;-83
2021/12/10 10:23:31;;;;;;;32.00;18.45;;;;;;;2.62;92.62;99404.86;1675997;84;25924;-82
2021/12/10 10:26:02;;;;;;;29.92;18.10;;;;;;;2.68;92.74;99407.67;1681221;84;25952;-83
2021/12/10 10:28:28;;;;;;;29.42;18.42;;;;;;;2.71;92.61;99404.71;1672101;84;28270;-83
2021/12/10 10:31:03;;;;;;;32.03;19.48;;;;;;;2.74;92.33;99403.53;1668499;84;26654;-83
2021/12/10 10:33:34;;;;;;;32.42;18.77;;;;;;;2.75;92.26;99406.03;1672028;84;25860;-83
2021/12/10 10:36:07;;;;;;;32.90;18.85;;;;;;;2.81;92.30;99401.39;1670299;84;26041;-83
2021/12/10 10:38:34;;;;;;;35.10;20.10;;;;;;;2.81;92.00;99392.14;1667726;84;25814;-84
2021/12/10 10:41:06;;;;;;;33.40;20.45;;;;;;;2.80;91.88;99402.37;1667853;84;27509;-83
2021/12/10 10:43:33;;;;;;;30.75;19.30;;;;;;;2.81;91.87;99408.48;1669928;84;25893;-83
2021/12/10 10:45:59;;;;;;;36.25;21.87;;;;;;;2.81;91.74;99405.36;1668578;84;25929;-83
2021/12/10 10:48:27;;;;;;;35.13;20.25;;;;;;;2.83;91.83;99407.34;1670103;84;25788;-83
2021/12/10 10:51:02;;;;;;;35.40;20.00;;;;;;;2.85;91.64;99416.42;1667592;84;25805;-83
2021/12/10 10:53:34;;;;;;;38.13;20.50;;;;;;;2.85;91.63;99409.31;1665397;84;27423;-83
2021/12/10 10:56:08;;;;;;;36.15;20.60;;;;;;;2.89;91.50;99405.83;1667681;84;26002;-83
2021/12/10 10:58:43;;;;;;;38.25;21.02;;;;;;;2.93;91.59;99396.59;1659865;85;25510;-83
2021/12/10 11:01:25;;;;;;;36.15;21.30;;;;;;;2.95;91.56;99406.52;1663705;84;25886;-85
2021/12/10 11:04:01;;;;;;;37.55;21.17;;;;;;;2.95;91.40;99404.67;1672906;84;25960;-84
2021/12/10 11:06:33;;;;;;;40.83;22.77;;;;;;;2.96;91.32;99409.47;1675645;84;27497;-84
2021/12/10 11:09:11;;;;;;;38.17;22.50;;;;;;;2.94;91.22;99408.33;1668011;84;26556;-84
2021/12/10 11:11:54;;;;;;;37.13;21.90;;;;;;;2.96;91.22;99413.44;1672118;84;26232;-83
2021/12/10 11:14:25;;;;;;;36.03;22.27;;;;;;;2.94;91.15;99411.45;1668207;84;26764;-83
2021/12/10 11:16:57;;;;;;;37.33;22.82;;;;;;;2.93;91.17;99411.95;1677149;84;25862;-83
2021/12/10 11:19:27;;;;;;;40.40;24.75;;;;;;;2.94;90.97;99409.64;1660715;84;28297;-84
2021/12/10 11:21:59;;;;;;;41.65;23.73;;;;;;;2.93;90.82;99398.72;1667326;84;25370;-84
2021/12/10 11:24:46;;;;;;;40.05;24.82;;;;;;;2.92;90.55;99395.77;1668599;84;25363;-83
2021/12/10 11:27:24;;;;;;;39.92;23.45;;;;;;;2.90;90.40;99400.40;1665127;84;26695;-84
2021/12/10 11:30:04;;;;;;;45.05;26.27;;;;;;;2.89;89.75;99392.61;1669535;84;25956;-83
2021/12/10 11:32:42;;;;;;;43.78;25.68;;;;;;;2.82;89.73;99400.91;1660595;86;27491;-82
2021/12/10 11:35:20;;;;;;;44.30;25.10;;;;;;;2.81;90.05;99397.42;1658497;86;26059;-84
2021/12/10 11:38:09;;;;;;;46.73;26.45;;;;;;;2.82;90.02;99395.09;1642922;84;26340;-83
2021/12/10 11:41:10;;;;;;;49.50;28.77;;;;;;;2.82;89.97;99389.80;1660503;85;26624;-83
2021/12/10 11:44:26;;;;;;;54.83;28.95;;;;;;;2.84;90.07;99395.78;1667530;84;26570;-84
2021/12/10 11:47:13;;;;;;;52.08;27.65;;;;;;;2.84;89.87;99401.56;1664694;84;27658;-84